sensor_id;sensor_type;location;lat;lon;timestamp;P1;durP1;ratioP1;P2;durP2;ratioP2
68275;SDS011;55106;51.438;-0.098;2022-11-12T00:00:19;17.07;;;9.47;;
68275;SDS011;55106;51.438;-0.098;2022-11-12T00:02:45;19.70;;;9.53;;
68275;SDS011;55106;51.438;-0.098;2022-11-12T00:05:10;16.87;;;9.67;;
68275;SDS011;55106;51.438;-0.098;2022-11-12T00:07:36;19.90;;;10.33;;
68275;SDS011;55106;51.438;-0.098;2022-11-12T00:10:01;18.27;;;9.93;;
68275;SDS011;55106;51.438;-0.098;2022-11-12T00:12:27;19.98;;;10.35;;
68275;SDS011;55106;51.438;-0.098;2022-11-12T00:14:53;16.83;;;9.17;;
68275;SDS011;55106;51.438;-0.098;2022-11-12T00:17:18;17.87;;;9.50;;
68275;SDS011;55106;51.438;-0.098;2022-11-12T00:19:43;19.57;;;9.67;;
68275;SDS011;55106;51.438;-0.098;2022-11-12T00:22:09;21.43;;;10.10;;
68275;SDS011;55106;51.438;-0.098;2022-11-12T00:24:34;19.90;;;9.80;;
68275;SDS011;55106;51.438;-0.098;2022-11-12T00:26:59;20.43;;;11.27;;
68275;SDS011;55106;51.438;-0.098;2022-11-12T00:29:25;20.37;;;10.67;;
68275;SDS011;55106;51.438;-0.098;2022-11-12T00:31:50;19.70;;;10.43;;
68275;SDS011;55106;51.438;-0.098;2022-11-12T00:34:15;21.63;;;10.70;;
68275;SDS011;55106;51.438;-0.098;2022-11-12T00:36:41;21.83;;;11.30;;
68275;SDS011;55106;51.438;-0.098;2022-11-12T00:39:06;21.10;;;10.77;;
68275;SDS011;55106;51.438;-0.098;2022-11-12T00:41:32;23.40;;;11.97;;
68275;SDS011;55106;51.438;-0.098;2022-11-12T00:43:57;29.10;;;12.83;;
68275;SDS011;55106;51.438;-0.098;2022-11-12T00:46:22;26.70;;;12.10;;
68275;SDS011;55106;51.438;-0.098;2022-11-12T00:48:48;21.23;;;11.48;;
68275;SDS011;55106;51.438;-0.098;2022-11-12T00:51:13;23.40;;;11.63;;
68275;SDS011;55106;51.438;-0.098;2022-11-12T00:53:38;24.80;;;12.73;;
68275;SDS011;55106;51.438;-0.098;2022-11-12T00:56:04;24.67;;;11.53;;
68275;SDS011;55106;51.438;-0.098;2022-11-12T00:58:31;21.92;;;11.43;;
68275;SDS011;55106;51.438;-0.098;2022-11-12T01:01:09;21.55;;;11.30;;
68275;SDS011;55106;51.438;-0.098;2022-11-12T01:03:36;21.60;;;11.27;;
68275;SDS011;55106;51.438;-0.098;2022-11-12T01:06:09;26.98;;;11.80;;
68275;SDS011;55106;51.438;-0.098;2022-11-12T01:08:37;26.13;;;11.95;;
68275;SDS011;55106;51.438;-0.098;2022-11-12T01:13:43;25.33;;;11.97;;
68275;SDS011;55106;51.438;-0.098;2022-11-12T01:16:11;23.63;;;12.35;;
68275;SDS011;55106;51.438;-0.098;2022-11-12T01:18:41;24.65;;;12.40;;
68275;SDS011;55106;51.438;-0.098;2022-11-12T01:21:08;25.73;;;12.95;;
68275;SDS011;55106;51.438;-0.098;2022-11-12T01:23:35;25.92;;;13.00;;
68275;SDS011;55106;51.438;-0.098;2022-11-12T01:26:02;26.40;;;13.13;;
68275;SDS011;55106;51.438;-0.098;2022-11-12T01:28:32;27.20;;;12.77;;
68275;SDS011;55106;51.438;-0.098;2022-11-12T01:30:57;27.63;;;13.20;;
68275;SDS011;55106;51.438;-0.098;2022-11-12T01:33:42;26.80;;;12.63;;
68275;SDS011;55106;51.438;-0.098;2022-11-12T01:36:10;28.15;;;13.65;;
68275;SDS011;55106;51.438;-0.098;2022-11-12T01:38:37;29.83;;;13.23;;
68275;SDS011;55106;51.438;-0.098;2022-11-12T01:41:03;30.38;;;13.70;;
68275;SDS011;55106;51.438;-0.098;2022-11-12T01:43:30;29.85;;;15.32;;
68275;SDS011;55106;51.438;-0.098;2022-11-12T01:45:55;33.50;;;13.57;;
68275;SDS011;55106;51.438;-0.098;2022-11-12T01:48:25;34.53;;;15.50;;
68275;SDS011;55106;51.438;-0.098;2022-11-12T01:50:56;33.33;;;14.40;;
68275;SDS011;55106;51.438;-0.098;2022-11-12T01:53:22;32.50;;;15.15;;
68275;SDS011;55106;51.438;-0.098;2022-11-12T01:55:50;30.63;;;14.23;;
68275;SDS011;55106;51.438;-0.098;2022-11-12T01:58:17;30.67;;;14.48;;
68275;SDS011;55106;51.438;-0.098;2022-11-12T02:00:45;31.08;;;14.65;;
68275;SDS011;55106;51.438;-0.098;2022-11-12T02:03:14;27.42;;;13.50;;
68275;SDS011;55106;51.438;-0.098;2022-11-12T02:05:43;35.05;;;15.60;;
68275;SDS011;55106;51.438;-0.098;2022-11-12T02:08:11;32.40;;;15.63;;
68275;SDS011;55106;51.438;-0.098;2022-11-12T02:10:37;34.38;;;15.20;;
68275;SDS011;55106;51.438;-0.098;2022-11-12T02:13:03;31.50;;;15.10;;
68275;SDS011;55106;51.438;-0.098;2022-11-12T02:15:48;29.30;;;13.90;;
68275;SDS011;55106;51.438;-0.098;2022-11-12T02:18:13;27.77;;;15.40;;
68275;SDS011;55106;51.438;-0.098;2022-11-12T02:20:39;29.77;;;14.32;;
68275;SDS011;55106;51.438;-0.098;2022-11-12T02:23:06;31.33;;;14.57;;
68275;SDS011;55106;51.438;-0.098;2022-11-12T02:25:32;25.98;;;13.60;;
68275;SDS011;55106;51.438;-0.098;2022-11-12T02:27:58;26.73;;;13.95;;
68275;SDS011;55106;51.438;-0.098;2022-11-12T02:30:31;31.65;;;14.05;;
68275;SDS011;55106;51.438;-0.098;2022-11-12T02:32:56;27.48;;;13.73;;
68275;SDS011;55106;51.438;-0.098;2022-11-12T02:35:22;26.03;;;13.80;;
68275;SDS011;55106;51.438;-0.098;2022-11-12T02:37:48;27.52;;;14.15;;
68275;SDS011;55106;51.438;-0.098;2022-11-12T02:40:13;26.43;;;13.43;;
68275;SDS011;55106;51.438;-0.098;2022-11-12T02:42:39;30.27;;;14.50;;
68275;SDS011;55106;51.438;-0.098;2022-11-12T02:45:04;27.97;;;13.73;;
68275;SDS011;55106;51.438;-0.098;2022-11-12T02:47:30;29.05;;;15.05;;
68275;SDS011;55106;51.438;-0.098;2022-11-12T02:49:55;28.57;;;13.30;;
68275;SDS011;55106;51.438;-0.098;2022-11-12T02:52:20;29.83;;;14.37;;
68275;SDS011;55106;51.438;-0.098;2022-11-12T02:54:46;28.97;;;14.27;;
68275;SDS011;55106;51.438;-0.098;2022-11-12T02:57:11;32.50;;;14.13;;
68275;SDS011;55106;51.438;-0.098;2022-11-12T02:59:36;27.50;;;13.27;;
68275;SDS011;55106;51.438;-0.098;2022-11-12T03:02:02;27.70;;;13.70;;
68275;SDS011;55106;51.438;-0.098;2022-11-12T03:04:27;27.27;;;13.65;;
68275;SDS011;55106;51.438;-0.098;2022-11-12T03:06:52;24.20;;;12.80;;
68275;SDS011;55106;51.438;-0.098;2022-11-12T03:09:18;27.03;;;14.40;;
68275;SDS011;55106;51.438;-0.098;2022-11-12T03:11:43;25.43;;;12.90;;
68275;SDS011;55106;51.438;-0.098;2022-11-12T03:14:09;25.40;;;13.03;;
68275;SDS011;55106;51.438;-0.098;2022-11-12T03:16:34;26.25;;;13.88;;
68275;SDS011;55106;51.438;-0.098;2022-11-12T03:18:59;24.90;;;13.03;;
68275;SDS011;55106;51.438;-0.098;2022-11-12T03:21:25;26.97;;;13.10;;
68275;SDS011;55106;51.438;-0.098;2022-11-12T03:23:50;25.20;;;13.70;;
68275;SDS011;55106;51.438;-0.098;2022-11-12T03:26:15;25.77;;;13.30;;
68275;SDS011;55106;51.438;-0.098;2022-11-12T03:28:41;25.30;;;13.07;;
68275;SDS011;55106;51.438;-0.098;2022-11-12T03:31:07;23.03;;;12.20;;
68275;SDS011;55106;51.438;-0.098;2022-11-12T03:33:32;25.77;;;13.05;;
68275;SDS011;55106;51.438;-0.098;2022-11-12T03:35:58;26.57;;;12.87;;
68275;SDS011;55106;51.438;-0.098;2022-11-12T03:38:23;24.73;;;12.73;;
68275;SDS011;55106;51.438;-0.098;2022-11-12T03:40:48;27.43;;;12.47;;
68275;SDS011;55106;51.438;-0.098;2022-11-12T03:43:14;22.03;;;11.83;;
68275;SDS011;55106;51.438;-0.098;2022-11-12T03:45:39;24.97;;;12.20;;
68275;SDS011;55106;51.438;-0.098;2022-11-12T03:48:05;24.63;;;12.47;;
68275;SDS011;55106;51.438;-0.098;2022-11-12T03:50:30;22.90;;;12.63;;
68275;SDS011;55106;51.438;-0.098;2022-11-12T03:52:57;25.23;;;13.75;;
68275;SDS011;55106;51.438;-0.098;2022-11-12T03:55:24;24.20;;;12.48;;
68275;SDS011;55106;51.438;-0.098;2022-11-12T03:57:51;29.13;;;13.73;;
68275;SDS011;55106;51.438;-0.098;2022-11-12T04:00:18;23.98;;;12.77;;
68275;SDS011;55106;51.438;-0.098;2022-11-12T04:02:44;25.75;;;13.07;;
68275;SDS011;55106;51.438;-0.098;2022-11-12T04:05:10;24.90;;;13.10;;
68275;SDS011;55106;51.438;-0.098;2022-11-12T04:07:58;26.58;;;12.63;;
68275;SDS011;55106;51.438;-0.098;2022-11-12T04:10:43;28.08;;;13.05;;
68275;SDS011;55106;51.438;-0.098;2022-11-12T04:13:08;24.83;;;12.63;;
68275;SDS011;55106;51.438;-0.098;2022-11-12T04:15:55;26.00;;;12.85;;
68275;SDS011;55106;51.438;-0.098;2022-11-12T04:18:47;23.80;;;12.30;;
68275;SDS011;55106;51.438;-0.098;2022-11-12T04:21:35;25.50;;;12.83;;
68275;SDS011;55106;51.438;-0.098;2022-11-12T04:24:15;23.50;;;11.98;;
68275;SDS011;55106;51.438;-0.098;2022-11-12T04:27:08;24.90;;;13.02;;
68275;SDS011;55106;51.438;-0.098;2022-11-12T04:29:36;23.60;;;11.85;;
68275;SDS011;55106;51.438;-0.098;2022-11-12T04:32:21;23.35;;;12.30;;
68275;SDS011;55106;51.438;-0.098;2022-11-12T04:34:47;24.57;;;12.43;;
68275;SDS011;55106;51.438;-0.098;2022-11-12T04:37:12;23.70;;;12.60;;
68275;SDS011;55106;51.438;-0.098;2022-11-12T04:39:38;26.23;;;12.20;;
68275;SDS011;55106;51.438;-0.098;2022-11-12T04:42:03;25.30;;;12.93;;
68275;SDS011;55106;51.438;-0.098;2022-11-12T04:44:47;22.92;;;12.43;;
68275;SDS011;55106;51.438;-0.098;2022-11-12T04:47:36;26.65;;;13.13;;
68275;SDS011;55106;51.438;-0.098;2022-11-12T04:50:04;25.83;;;13.47;;
68275;SDS011;55106;51.438;-0.098;2022-11-12T04:52:38;23.67;;;11.63;;
68275;SDS011;55106;51.438;-0.098;2022-11-12T04:55:03;25.93;;;13.20;;
68275;SDS011;55106;51.438;-0.098;2022-11-12T04:57:29;24.13;;;12.60;;
68275;SDS011;55106;51.438;-0.098;2022-11-12T04:59:55;24.13;;;12.70;;
68275;SDS011;55106;51.438;-0.098;2022-11-12T05:02:20;26.27;;;13.93;;
68275;SDS011;55106;51.438;-0.098;2022-11-12T05:04:45;25.43;;;12.77;;
68275;SDS011;55106;51.438;-0.098;2022-11-12T05:07:11;26.20;;;12.07;;
68275;SDS011;55106;51.438;-0.098;2022-11-12T05:09:37;24.50;;;13.15;;
68275;SDS011;55106;51.438;-0.098;2022-11-12T05:12:02;28.07;;;12.63;;
68275;SDS011;55106;51.438;-0.098;2022-11-12T05:14:28;28.60;;;13.57;;
68275;SDS011;55106;51.438;-0.098;2022-11-12T05:16:53;27.87;;;13.63;;
68275;SDS011;55106;51.438;-0.098;2022-11-12T05:19:18;30.40;;;13.98;;
68275;SDS011;55106;51.438;-0.098;2022-11-12T05:21:44;30.37;;;13.63;;
68275;SDS011;55106;51.438;-0.098;2022-11-12T05:24:28;30.90;;;13.47;;
68275;SDS011;55106;51.438;-0.098;2022-11-12T05:26:54;36.78;;;14.88;;
68275;SDS011;55106;51.438;-0.098;2022-11-12T05:29:19;34.63;;;14.13;;
68275;SDS011;55106;51.438;-0.098;2022-11-12T05:31:45;39.13;;;14.10;;
68275;SDS011;55106;51.438;-0.098;2022-11-12T05:34:10;36.43;;;15.30;;
68275;SDS011;55106;51.438;-0.098;2022-11-12T05:36:36;31.70;;;15.10;;
68275;SDS011;55106;51.438;-0.098;2022-11-12T05:39:01;35.70;;;15.83;;
68275;SDS011;55106;51.438;-0.098;2022-11-12T05:41:27;30.88;;;14.18;;
68275;SDS011;55106;51.438;-0.098;2022-11-12T05:43:52;32.40;;;14.47;;
68275;SDS011;55106;51.438;-0.098;2022-11-12T05:46:18;31.90;;;13.87;;
68275;SDS011;55106;51.438;-0.098;2022-11-12T05:48:43;35.17;;;14.77;;
68275;SDS011;55106;51.438;-0.098;2022-11-12T05:51:09;34.92;;;14.82;;
68275;SDS011;55106;51.438;-0.098;2022-11-12T05:53:34;31.20;;;15.17;;
68275;SDS011;55106;51.438;-0.098;2022-11-12T05:56:00;36.77;;;16.23;;
68275;SDS011;55106;51.438;-0.098;2022-11-12T05:58:26;40.28;;;16.15;;
68275;SDS011;55106;51.438;-0.098;2022-11-12T06:00:52;35.87;;;15.53;;
68275;SDS011;55106;51.438;-0.098;2022-11-12T06:03:17;34.30;;;15.93;;
68275;SDS011;55106;51.438;-0.098;2022-11-12T06:05:43;37.63;;;15.73;;
68275;SDS011;55106;51.438;-0.098;2022-11-12T06:08:08;37.57;;;16.67;;
68275;SDS011;55106;51.438;-0.098;2022-11-12T06:10:34;33.55;;;14.57;;
68275;SDS011;55106;51.438;-0.098;2022-11-12T06:13:00;33.43;;;14.87;;
68275;SDS011;55106;51.438;-0.098;2022-11-12T06:15:25;37.17;;;16.50;;
68275;SDS011;55106;51.438;-0.098;2022-11-12T06:17:51;31.35;;;15.40;;
68275;SDS011;55106;51.438;-0.098;2022-11-12T06:20:17;32.78;;;15.07;;
68275;SDS011;55106;51.438;-0.098;2022-11-12T06:22:42;42.43;;;16.53;;
68275;SDS011;55106;51.438;-0.098;2022-11-12T06:25:08;34.90;;;14.87;;
68275;SDS011;55106;51.438;-0.098;2022-11-12T06:27:33;36.23;;;15.97;;
68275;SDS011;55106;51.438;-0.098;2022-11-12T06:29:58;33.57;;;15.00;;
68275;SDS011;55106;51.438;-0.098;2022-11-12T06:32:24;36.90;;;15.37;;
68275;SDS011;55106;51.438;-0.098;2022-11-12T06:34:49;34.40;;;15.27;;
68275;SDS011;55106;51.438;-0.098;2022-11-12T06:37:16;37.35;;;15.70;;
68275;SDS011;55106;51.438;-0.098;2022-11-12T06:39:42;37.40;;;15.60;;
68275;SDS011;55106;51.438;-0.098;2022-11-12T06:42:07;31.73;;;14.63;;
68275;SDS011;55106;51.438;-0.098;2022-11-12T06:44:32;31.73;;;15.13;;
68275;SDS011;55106;51.438;-0.098;2022-11-12T06:46:58;35.60;;;15.50;;
68275;SDS011;55106;51.438;-0.098;2022-11-12T06:49:23;34.50;;;14.63;;
68275;SDS011;55106;51.438;-0.098;2022-11-12T06:51:49;36.53;;;15.90;;
68275;SDS011;55106;51.438;-0.098;2022-11-12T06:54:15;29.00;;;14.73;;
68275;SDS011;55106;51.438;-0.098;2022-11-12T06:56:40;35.33;;;14.70;;
68275;SDS011;55106;51.438;-0.098;2022-11-12T06:59:05;34.97;;;14.80;;
68275;SDS011;55106;51.438;-0.098;2022-11-12T07:01:31;33.45;;;14.60;;
68275;SDS011;55106;51.438;-0.098;2022-11-12T07:03:56;30.40;;;13.43;;
68275;SDS011;55106;51.438;-0.098;2022-11-12T07:06:21;29.87;;;14.40;;
68275;SDS011;55106;51.438;-0.098;2022-11-12T07:08:47;34.97;;;14.57;;
68275;SDS011;55106;51.438;-0.098;2022-11-12T07:11:16;31.42;;;14.27;;
68275;SDS011;55106;51.438;-0.098;2022-11-12T07:13:43;31.88;;;16.02;;
68275;SDS011;55106;51.438;-0.098;2022-11-12T07:16:09;34.03;;;15.18;;
68275;SDS011;55106;51.438;-0.098;2022-11-12T07:18:36;33.30;;;16.43;;
68275;SDS011;55106;51.438;-0.098;2022-11-12T07:21:04;29.15;;;15.23;;
68275;SDS011;55106;51.438;-0.098;2022-11-12T07:23:31;34.50;;;14.45;;
68275;SDS011;55106;51.438;-0.098;2022-11-12T07:25:59;33.88;;;15.50;;
68275;SDS011;55106;51.438;-0.098;2022-11-12T07:28:26;31.20;;;15.07;;
68275;SDS011;55106;51.438;-0.098;2022-11-12T07:30:59;35.03;;;15.73;;
68275;SDS011;55106;51.438;-0.098;2022-11-12T07:33:26;29.13;;;14.88;;
68275;SDS011;55106;51.438;-0.098;2022-11-12T07:35:55;26.52;;;13.93;;
68275;SDS011;55106;51.438;-0.098;2022-11-12T07:38:44;30.13;;;15.40;;
68275;SDS011;55106;51.438;-0.098;2022-11-12T07:41:11;31.83;;;14.80;;
68275;SDS011;55106;51.438;-0.098;2022-11-12T07:43:41;30.08;;;14.38;;
68275;SDS011;55106;51.438;-0.098;2022-11-12T07:46:12;27.98;;;13.75;;
68275;SDS011;55106;51.438;-0.098;2022-11-12T07:48:39;29.60;;;13.85;;
68275;SDS011;55106;51.438;-0.098;2022-11-12T07:51:06;25.57;;;13.60;;
68275;SDS011;55106;51.438;-0.098;2022-11-12T07:53:35;29.42;;;14.35;;
68275;SDS011;55106;51.438;-0.098;2022-11-12T07:56:01;27.10;;;13.57;;
68275;SDS011;55106;51.438;-0.098;2022-11-12T07:58:29;25.48;;;13.07;;
68275;SDS011;55106;51.438;-0.098;2022-11-12T08:00:56;25.60;;;13.90;;
68275;SDS011;55106;51.438;-0.098;2022-11-12T08:03:21;28.77;;;14.30;;
68275;SDS011;55106;51.438;-0.098;2022-11-12T08:05:47;25.80;;;13.25;;
68275;SDS011;55106;51.438;-0.098;2022-11-12T08:08:12;25.10;;;13.67;;
68275;SDS011;55106;51.438;-0.098;2022-11-12T08:10:38;24.83;;;13.33;;
68275;SDS011;55106;51.438;-0.098;2022-11-12T08:13:04;26.48;;;13.35;;
68275;SDS011;55106;51.438;-0.098;2022-11-12T08:15:30;23.45;;;12.57;;
68275;SDS011;55106;51.438;-0.098;2022-11-12T08:17:55;21.00;;;12.10;;
68275;SDS011;55106;51.438;-0.098;2022-11-12T08:20:21;25.93;;;12.23;;
68275;SDS011;55106;51.438;-0.098;2022-11-12T08:22:47;21.95;;;12.50;;
68275;SDS011;55106;51.438;-0.098;2022-11-12T08:25:12;22.87;;;12.53;;
68275;SDS011;55106;51.438;-0.098;2022-11-12T08:27:38;26.73;;;13.50;;
68275;SDS011;55106;51.438;-0.098;2022-11-12T08:30:03;24.57;;;12.20;;
68275;SDS011;55106;51.438;-0.098;2022-11-12T08:32:29;22.10;;;12.63;;
68275;SDS011;55106;51.438;-0.098;2022-11-12T08:34:55;25.10;;;12.43;;
68275;SDS011;55106;51.438;-0.098;2022-11-12T08:37:20;21.73;;;11.97;;
68275;SDS011;55106;51.438;-0.098;2022-11-12T08:39:46;22.63;;;11.90;;
68275;SDS011;55106;51.438;-0.098;2022-11-12T08:42:11;22.73;;;12.20;;
68275;SDS011;55106;51.438;-0.098;2022-11-12T08:44:36;24.03;;;11.47;;
68275;SDS011;55106;51.438;-0.098;2022-11-12T08:47:02;23.75;;;12.35;;
68275;SDS011;55106;51.438;-0.098;2022-11-12T08:49:28;22.63;;;11.80;;
68275;SDS011;55106;51.438;-0.098;2022-11-12T08:51:53;26.50;;;11.90;;
68275;SDS011;55106;51.438;-0.098;2022-11-12T08:54:19;20.63;;;11.43;;
68275;SDS011;55106;51.438;-0.098;2022-11-12T08:56:45;23.40;;;11.70;;
68275;SDS011;55106;51.438;-0.098;2022-11-12T08:59:10;25.43;;;12.03;;
68275;SDS011;55106;51.438;-0.098;2022-11-12T09:01:36;20.27;;;10.80;;
68275;SDS011;55106;51.438;-0.098;2022-11-12T09:04:01;23.37;;;11.13;;
68275;SDS011;55106;51.438;-0.098;2022-11-12T09:06:27;22.63;;;11.87;;
68275;SDS011;55106;51.438;-0.098;2022-11-12T09:08:52;21.10;;;11.35;;
68275;SDS011;55106;51.438;-0.098;2022-11-12T09:11:17;21.90;;;11.37;;
68275;SDS011;55106;51.438;-0.098;2022-11-12T09:13:43;22.40;;;10.63;;
68275;SDS011;55106;51.438;-0.098;2022-11-12T09:16:08;21.37;;;11.37;;
68275;SDS011;55106;51.438;-0.098;2022-11-12T09:18:34;22.92;;;10.85;;
68275;SDS011;55106;51.438;-0.098;2022-11-12T09:21:04;18.88;;;9.93;;
68275;SDS011;55106;51.438;-0.098;2022-11-12T09:23:32;18.35;;;9.80;;
68275;SDS011;55106;51.438;-0.098;2022-11-12T09:25:58;19.17;;;10.43;;
68275;SDS011;55106;51.438;-0.098;2022-11-12T09:28:24;19.98;;;10.48;;
68275;SDS011;55106;51.438;-0.098;2022-11-12T09:30:50;19.00;;;10.60;;
68275;SDS011;55106;51.438;-0.098;2022-11-12T09:33:17;18.27;;;9.88;;
68275;SDS011;55106;51.438;-0.098;2022-11-12T09:35:44;19.48;;;9.50;;
68275;SDS011;55106;51.438;-0.098;2022-11-12T09:38:10;21.23;;;10.40;;
68275;SDS011;55106;51.438;-0.098;2022-11-12T09:40:38;18.95;;;10.55;;
68275;SDS011;55106;51.438;-0.098;2022-11-12T09:43:09;17.90;;;9.77;;
68275;SDS011;55106;51.438;-0.098;2022-11-12T09:45:40;19.48;;;10.05;;
68275;SDS011;55106;51.438;-0.098;2022-11-12T09:48:07;21.10;;;10.03;;
68275;SDS011;55106;51.438;-0.098;2022-11-12T09:50:36;18.40;;;9.93;;
68275;SDS011;55106;51.438;-0.098;2022-11-12T09:53:19;18.85;;;9.68;;
68275;SDS011;55106;51.438;-0.098;2022-11-12T09:55:50;18.13;;;9.60;;
68275;SDS011;55106;51.438;-0.098;2022-11-12T09:58:16;14.60;;;8.02;;
68275;SDS011;55106;51.438;-0.098;2022-11-12T10:06:15;16.05;;;8.77;;
68275;SDS011;55106;51.438;-0.098;2022-11-12T10:08:53;18.70;;;8.65;;
68275;SDS011;55106;51.438;-0.098;2022-11-12T10:17:07;14.43;;;8.18;;
68275;SDS011;55106;51.438;-0.098;2022-11-12T10:19:45;16.40;;;8.23;;
68275;SDS011;55106;51.438;-0.098;2022-11-12T10:25:13;15.13;;;8.13;;
68275;SDS011;55106;51.438;-0.098;2022-11-12T10:27:42;15.87;;;8.43;;
68275;SDS011;55106;51.438;-0.098;2022-11-12T10:30:12;15.98;;;8.05;;
68275;SDS011;55106;51.438;-0.098;2022-11-12T10:32:41;18.17;;;9.30;;
68275;SDS011;55106;51.438;-0.098;2022-11-12T10:35:09;17.98;;;8.30;;
68275;SDS011;55106;51.438;-0.098;2022-11-12T10:37:48;14.13;;;8.65;;
68275;SDS011;55106;51.438;-0.098;2022-11-12T10:40:33;15.10;;;8.20;;
68275;SDS011;55106;51.438;-0.098;2022-11-12T10:43:04;15.05;;;8.32;;
68275;SDS011;55106;51.438;-0.098;2022-11-12T10:45:44;15.02;;;7.88;;
68275;SDS011;55106;51.438;-0.098;2022-11-12T10:48:24;14.15;;;7.32;;
68275;SDS011;55106;51.438;-0.098;2022-11-12T10:50:52;13.68;;;7.60;;
68275;SDS011;55106;51.438;-0.098;2022-11-12T10:53:38;16.20;;;8.17;;
68275;SDS011;55106;51.438;-0.098;2022-11-12T10:56:07;12.90;;;7.47;;
68275;SDS011;55106;51.438;-0.098;2022-11-12T11:01:56;15.10;;;8.30;;
68275;SDS011;55106;51.438;-0.098;2022-11-12T11:07:20;13.13;;;7.90;;
68275;SDS011;55106;51.438;-0.098;2022-11-12T11:10:11;15.02;;;7.38;;
68275;SDS011;55106;51.438;-0.098;2022-11-12T11:12:46;13.70;;;7.97;;
68275;SDS011;55106;51.438;-0.098;2022-11-12T11:17:40;13.50;;;6.82;;
68275;SDS011;55106;51.438;-0.098;2022-11-12T11:23:05;13.43;;;7.28;;
68275;SDS011;55106;51.438;-0.098;2022-11-12T11:25:38;13.90;;;7.53;;
68275;SDS011;55106;51.438;-0.098;2022-11-12T11:37:00;12.55;;;7.22;;
68275;SDS011;55106;51.438;-0.098;2022-11-12T11:40:05;14.15;;;7.20;;
68275;SDS011;55106;51.438;-0.098;2022-11-12T11:48:20;14.45;;;8.10;;
68275;SDS011;55106;51.438;-0.098;2022-11-12T11:56:57;14.18;;;7.55;;
68275;SDS011;55106;51.438;-0.098;2022-11-12T12:02:58;15.70;;;8.10;;
68275;SDS011;55106;51.438;-0.098;2022-11-12T12:13:29;13.00;;;7.60;;
68275;SDS011;55106;51.438;-0.098;2022-11-12T12:21:15;13.23;;;6.53;;
68275;SDS011;55106;51.438;-0.098;2022-11-12T12:26:16;13.80;;;6.95;;
68275;SDS011;55106;51.438;-0.098;2022-11-12T12:31:36;11.43;;;6.60;;
68275;SDS011;55106;51.438;-0.098;2022-11-12T12:34:11;12.02;;;7.00;;
68275;SDS011;55106;51.438;-0.098;2022-11-12T12:36:43;12.00;;;6.75;;
68275;SDS011;55106;51.438;-0.098;2022-11-12T12:44:26;11.60;;;6.37;;
68275;SDS011;55106;51.438;-0.098;2022-11-12T12:47:14;11.32;;;6.30;;
68275;SDS011;55106;51.438;-0.098;2022-11-12T12:49:43;13.85;;;6.93;;
68275;SDS011;55106;51.438;-0.098;2022-11-12T12:52:11;11.80;;;7.03;;
68275;SDS011;55106;51.438;-0.098;2022-11-12T12:59:58;13.00;;;6.85;;
68275;SDS011;55106;51.438;-0.098;2022-11-12T13:02:50;11.85;;;7.55;;
68275;SDS011;55106;51.438;-0.098;2022-11-12T13:05:23;11.90;;;6.85;;
68275;SDS011;55106;51.438;-0.098;2022-11-12T13:07:51;13.33;;;7.53;;
68275;SDS011;55106;51.438;-0.098;2022-11-12T13:13:04;12.48;;;6.60;;
68275;SDS011;55106;51.438;-0.098;2022-11-12T13:15:49;13.50;;;7.25;;
68275;SDS011;55106;51.438;-0.098;2022-11-12T13:23:47;11.35;;;6.35;;
68275;SDS011;55106;51.438;-0.098;2022-11-12T13:34:50;12.80;;;6.33;;
68275;SDS011;55106;51.438;-0.098;2022-11-12T13:40:16;10.30;;;6.30;;
68275;SDS011;55106;51.438;-0.098;2022-11-12T13:42:49;10.75;;;6.00;;
68275;SDS011;55106;51.438;-0.098;2022-11-12T13:45:16;12.45;;;6.38;;
68275;SDS011;55106;51.438;-0.098;2022-11-12T13:47:44;12.17;;;6.93;;
68275;SDS011;55106;51.438;-0.098;2022-11-12T13:50:12;12.82;;;6.82;;
68275;SDS011;55106;51.438;-0.098;2022-11-12T13:52:41;11.60;;;6.35;;
68275;SDS011;55106;51.438;-0.098;2022-11-12T13:55:14;11.77;;;6.87;;
68275;SDS011;55106;51.438;-0.098;2022-11-12T13:57:50;12.82;;;6.15;;
68275;SDS011;55106;51.438;-0.098;2022-11-12T14:02:47;11.40;;;6.27;;
68275;SDS011;55106;51.438;-0.098;2022-11-12T14:05:20;8.35;;;5.43;;
68275;SDS011;55106;51.438;-0.098;2022-11-12T14:07:52;11.40;;;6.10;;
68275;SDS011;55106;51.438;-0.098;2022-11-12T14:10:32;12.70;;;6.37;;
68275;SDS011;55106;51.438;-0.098;2022-11-12T14:16:23;10.98;;;5.65;;
68275;SDS011;55106;51.438;-0.098;2022-11-12T14:21:38;10.85;;;6.03;;
68275;SDS011;55106;51.438;-0.098;2022-11-12T14:24:04;10.33;;;6.10;;
68275;SDS011;55106;51.438;-0.098;2022-11-12T14:26:37;10.20;;;5.67;;
68275;SDS011;55106;51.438;-0.098;2022-11-12T14:29:04;9.45;;;5.88;;
68275;SDS011;55106;51.438;-0.098;2022-11-12T14:31:30;10.45;;;5.97;;
68275;SDS011;55106;51.438;-0.098;2022-11-12T14:33:56;10.53;;;5.60;;
68275;SDS011;55106;51.438;-0.098;2022-11-12T14:36:51;9.68;;;5.68;;
68275;SDS011;55106;51.438;-0.098;2022-11-12T14:39:19;11.48;;;5.85;;
68275;SDS011;55106;51.438;-0.098;2022-11-12T14:41:46;10.68;;;6.13;;
68275;SDS011;55106;51.438;-0.098;2022-11-12T14:44:20;9.60;;;6.05;;
68275;SDS011;55106;51.438;-0.098;2022-11-12T14:46:54;12.03;;;7.07;;
68275;SDS011;55106;51.438;-0.098;2022-11-12T14:49:38;12.65;;;6.60;;
68275;SDS011;55106;51.438;-0.098;2022-11-12T14:54:51;11.95;;;6.60;;
68275;SDS011;55106;51.438;-0.098;2022-11-12T14:57:22;12.48;;;6.50;;
68275;SDS011;55106;51.438;-0.098;2022-11-12T14:59:51;13.30;;;7.10;;
68275;SDS011;55106;51.438;-0.098;2022-11-12T15:02:26;14.10;;;8.30;;
68275;SDS011;55106;51.438;-0.098;2022-11-12T15:05:29;13.30;;;6.33;;
68275;SDS011;55106;51.438;-0.098;2022-11-12T15:10:44;13.10;;;7.05;;
68275;SDS011;55106;51.438;-0.098;2022-11-12T15:13:11;12.57;;;6.70;;
68275;SDS011;55106;51.438;-0.098;2022-11-12T15:16:03;10.52;;;6.63;;
68275;SDS011;55106;51.438;-0.098;2022-11-12T15:18:31;12.67;;;6.53;;
68275;SDS011;55106;51.438;-0.098;2022-11-12T15:23:35;11.45;;;5.88;;
68275;SDS011;55106;51.438;-0.098;2022-11-12T15:31:47;10.73;;;6.73;;
68275;SDS011;55106;51.438;-0.098;2022-11-12T15:34:33;14.50;;;7.50;;
68275;SDS011;55106;51.438;-0.098;2022-11-12T15:39:48;12.65;;;7.20;;
68275;SDS011;55106;51.438;-0.098;2022-11-12T15:45:08;12.77;;;6.95;;
68275;SDS011;55106;51.438;-0.098;2022-11-12T15:47:34;14.15;;;8.30;;
68275;SDS011;55106;51.438;-0.098;2022-11-12T15:49:59;11.77;;;7.40;;
68275;SDS011;55106;51.438;-0.098;2022-11-12T15:52:24;13.60;;;8.17;;
68275;SDS011;55106;51.438;-0.098;2022-11-12T15:54:50;12.90;;;8.23;;
68275;SDS011;55106;51.438;-0.098;2022-11-12T15:57:20;15.68;;;8.32;;
68275;SDS011;55106;51.438;-0.098;2022-11-12T15:59:51;13.07;;;8.27;;
68275;SDS011;55106;51.438;-0.098;2022-11-12T16:02:21;14.30;;;8.77;;
68275;SDS011;55106;51.438;-0.098;2022-11-12T16:04:46;14.20;;;7.93;;
68275;SDS011;55106;51.438;-0.098;2022-11-12T16:07:12;14.60;;;8.75;;
68275;SDS011;55106;51.438;-0.098;2022-11-12T16:09:37;14.93;;;9.13;;
68275;SDS011;55106;51.438;-0.098;2022-11-12T16:12:03;17.57;;;9.17;;
68275;SDS011;55106;51.438;-0.098;2022-11-12T16:14:28;15.50;;;9.40;;
68275;SDS011;55106;51.438;-0.098;2022-11-12T16:16:54;12.70;;;8.50;;
68275;SDS011;55106;51.438;-0.098;2022-11-12T16:19:20;13.88;;;8.27;;
68275;SDS011;55106;51.438;-0.098;2022-11-12T16:21:46;15.37;;;9.37;;
68275;SDS011;55106;51.438;-0.098;2022-11-12T16:24:11;13.87;;;8.90;;
68275;SDS011;55106;51.438;-0.098;2022-11-12T16:26:37;15.57;;;8.82;;
68275;SDS011;55106;51.438;-0.098;2022-11-12T16:29:04;16.63;;;8.67;;
68275;SDS011;55106;51.438;-0.098;2022-11-12T16:31:35;15.50;;;9.80;;